Time;durP1;ratioP1;P1;durP2;ratioP2;P2;SDS_P1;SDS_P2;PMS_P1;PMS_P2;Temp;Humidity;BMP_temperature;BMP_pressure;BME280_temperature;BME280_humidity;BME280_pressure;Samples;Min_cycle;Max_cycle;Signal;HPM_P1;HPM_P2
2023/03/03 00:01:34;;;;;;;13.65;6.68;;;2.30;99.90;;;;;;4997258;28;20072;-43
2023/03/03 00:04:00;;;;;;;15.57;7.50;;;2.30;99.90;;;;;;4999473;28;20053;-44
2023/03/03 00:06:26;;;;;;;15.95;6.95;;;2.30;99.90;;;;;;5004495;28;20061;-41
2023/03/03 00:08:52;;;;;;;11.77;5.95;;;2.30;99.90;;;;;;5002212;28;20111;-44
2023/03/03 00:11:17;;;;;;;13.15;6.70;;;2.20;99.90;;;;;;5005308;28;20045;-45
2023/03/03 00:13:47;;;;;;;13.00;6.57;;;2.30;99.90;;;;;;5002245;28;20077;-41
2023/03/03 00:16:30;;;;;;;13.50;6.72;;;2.30;99.90;;;;;;5002503;28;20077;-42
2023/03/03 00:18:55;;;;;;;;;;;2.30;99.90;;;;;;5001787;28;20049;-42
2023/03/03 00:21:28;;;;;;;13.52;6.32;;;2.20;99.90;;;;;;5001524;28;20394;-45
2023/03/03 00:24:01;;;;;;;16.63;7.50;;;2.20;99.90;;;;;;5001508;28;20049;-44
2023/03/03 00:26:38;;;;;;;13.32;6.32;;;2.20;99.90;;;;;;5002226;28;20503;-45
2023/03/03 00:29:27;;;;;;;13.60;6.45;;;2.30;99.90;;;;;;4998263;28;20591;-46
2023/03/03 00:31:53;;;;;;;13.98;6.55;;;2.30;99.90;;;;;;4998174;28;20073;-44
2023/03/03 00:34:26;;;;;;;14.18;6.72;;;2.30;99.90;;;;;;5000484;28;20506;-43
2023/03/03 00:36:57;;;;;;;14.25;6.65;;;2.40;99.90;;;;;;5004658;28;20049;-43
2023/03/03 00:39:37;;;;;;;15.75;6.53;;;2.40;99.90;;;;;;5001901;28;20056;-45
2023/03/03 00:42:15;;;;;;;14.88;7.00;;;2.40;99.90;;;;;;5002097;28;20744;-45
2023/03/03 00:44:43;;;;;;;13.43;6.45;;;2.40;99.90;;;;;;5003841;28;20491;-42
2023/03/03 00:47:26;;;;;;;16.85;6.68;;;2.40;99.90;;;;;;5004429;28;20054;-43
2023/03/03 00:50:12;;;;;;;;;;;2.40;99.90;;;;;;5000753;28;20046;-45
2023/03/03 00:52:41;;;;;;;13.75;6.65;;;2.40;99.90;;;;;;5001838;28;20295;-44
2023/03/03 00:55:07;;;;;;;16.50;7.20;;;2.40;99.90;;;;;;5003862;28;20050;-44
2023/03/03 00:57:33;;;;;;;15.20;7.05;;;2.40;99.90;;;;;;5006570;28;20046;-44
2023/03/03 00:59:59;;;;;;;14.38;6.75;;;2.40;99.90;;;;;;5006920;28;20523;-44
2023/03/03 01:02:24;;;;;;;18.77;7.05;;;2.40;99.90;;;;;;5002459;28;20413;-43
2023/03/03 01:04:55;;;;;;;14.20;6.32;;;2.50;99.90;;;;;;5002578;28;20054;-41
2023/03/03 01:07:21;;;;;;;16.23;7.45;;;2.50;99.90;;;;;;5000165;28;20061;-42
2023/03/03 01:09:47;;;;;;;15.10;6.97;;;2.50;99.90;;;;;;5005044;28;20046;-44
2023/03/03 01:12:13;;;;;;;14.45;7.40;;;2.60;99.90;;;;;;5007685;28;20056;-44
2023/03/03 01:14:39;;;;;;;15.23;7.07;;;2.60;99.90;;;;;;5004956;28;20061;-44
2023/03/03 01:17:05;;;;;;;13.32;5.95;;;2.60;99.90;;;;;;5005631;28;20058;-47
2023/03/03 01:19:31;;;;;;;12.77;5.65;;;2.50;99.90;;;;;;5007887;28;20072;-42
2023/03/03 01:21:57;;;;;;;14.55;7.13;;;2.60;99.90;;;;;;4997626;28;20053;-41
2023/03/03 01:24:22;;;;;;;14.45;6.25;;;2.50;99.90;;;;;;5007422;28;20060;-45
2023/03/03 01:26:48;;;;;;;14.23;6.70;;;2.50;99.90;;;;;;5004550;28;20062;-41
2023/03/03 01:29:14;;;;;;;14.82;6.95;;;2.50;99.90;;;;;;5007369;28;20046;-43
2023/03/03 01:31:39;;;;;;;12.38;6.43;;;2.50;99.90;;;;;;5007951;28;20187;-42
2023/03/03 01:34:06;;;;;;;15.40;6.57;;;2.50;99.90;;;;;;5010513;28;20053;-42
2023/03/03 01:36:32;;;;;;;15.25;6.35;;;2.50;99.90;;;;;;4996790;28;20104;-41
2023/03/03 01:38:58;;;;;;;15.88;6.43;;;2.50;99.90;;;;;;5005432;28;20057;-42
2023/03/03 01:41:28;;;;;;;16.05;6.72;;;2.50;99.90;;;;;;5004275;28;20420;-45
2023/03/03 01:43:55;;;;;;;10.63;5.25;;;2.50;99.90;;;;;;5002883;28;20090;-42
2023/03/03 01:46:23;;;;;;;13.98;6.50;;;2.50;99.90;;;;;;5005303;28;20193;-42
2023/03/03 01:48:55;;;;;;;14.18;6.05;;;2.60;99.90;;;;;;5000801;28;20077;-43
2023/03/03 01:51:27;;;;;;;12.10;5.13;;;2.60;99.90;;;;;;5001530;28;20115;-42
2023/03/03 01:53:58;;;;;;;;;;;2.50;99.90;;;;;;5003437;28;20380;-42
2023/03/03 01:56:25;;;;;;;15.23;6.20;;;2.60;99.90;;;;;;5004491;28;19921;-41
2023/03/03 01:59:05;;;;;;;13.63;5.63;;;2.60;99.90;;;;;;5004343;28;20490;-41
2023/03/03 02:01:32;;;;;;;23.08;7.13;;;2.60;99.90;;;;;;5002713;28;20074;-41
2023/03/03 02:03:59;;;;;;;15.52;6.57;;;2.60;99.90;;;;;;5008289;28;20065;-44
2023/03/03 02:06:33;;;;;;;15.32;6.45;;;2.60;99.90;;;;;;5006653;28;20078;-46
2023/03/03 02:09:05;;;;;;;21.83;6.15;;;2.60;99.90;;;;;;4995417;28;20061;-42
2023/03/03 02:11:33;;;;;;;13.60;5.60;;;2.60;99.90;;;;;;5006900;28;20112;-41
2023/03/03 02:13:59;;;;;;;21.85;5.90;;;2.60;99.90;;;;;;5000274;28;20049;-41
2023/03/03 02:16:25;;;;;;;35.90;6.45;;;2.60;99.90;;;;;;5002707;28;20050;-42
2023/03/03 02:18:51;;;;;;;15.43;5.65;;;2.60;99.90;;;;;;5003480;28;20133;-43
2023/03/03 02:21:22;;;;;;;20.92;5.90;;;2.60;99.90;;;;;;5002012;28;20041;-44
2023/03/03 02:24:01;;;;;;;11.67;4.30;;;2.60;99.90;;;;;;4995781;28;20077;-44
2023/03/03 02:26:29;;;;;;;12.45;5.20;;;2.60;99.90;;;;;;5004983;28;20053;-45
2023/03/03 02:28:54;;;;;;;12.57;5.85;;;2.60;99.90;;;;;;5005717;28;20056;-41
2023/03/03 02:31:22;;;;;;;19.20;5.63;;;2.60;99.90;;;;;;5005563;28;20419;-42
2023/03/03 02:33:50;;;;;;;22.88;6.45;;;2.60;99.90;;;;;;5002188;28;20080;-43
2023/03/03 02:36:22;;;;;;;24.08;6.85;;;2.60;99.90;;;;;;5002477;28;20104;-43
2023/03/03 02:38:57;;;;;;;18.73;5.72;;;2.50;99.90;;;;;;5005496;28;20507;-44
2023/03/03 02:41:29;;;;;;;14.63;5.32;;;2.60;99.90;;;;;;5003267;28;20046;-41
2023/03/03 02:44:08;;;;;;;19.65;6.13;;;2.60;99.90;;;;;;5007872;28;20057;-43
2023/03/03 02:46:39;;;;;;;22.67;5.88;;;2.60;99.90;;;;;;5003920;28;20060;-43
2023/03/03 02:49:07;;;;;;;21.60;6.05;;;2.60;99.90;;;;;;5002063;28;20058;-46
2023/03/03 02:51:33;;;;;;;30.67;6.75;;;2.50;99.90;;;;;;5005640;28;20045;-42
2023/03/03 02:53:58;;;;;;;21.85;6.55;;;2.50;99.90;;;;;;5003326;28;20191;-43
2023/03/03 02:56:24;;;;;;;23.77;6.53;;;2.50;99.90;;;;;;5006187;28;20046;-43
2023/03/03 02:58:50;;;;;;;15.88;6.10;;;2.50;99.90;;;;;;5003861;28;21902;-44
2023/03/03 03:01:16;;;;;;;18.83;6.10;;;2.60;99.90;;;;;;5004853;28;20049;-46
2023/03/03 03:03:42;;;;;;;16.85;5.53;;;2.60;99.90;;;;;;5005636;28;20050;-46
2023/03/03 03:06:07;;;;;;;17.65;5.78;;;2.60;99.90;;;;;;5002719;28;20110;-43
2023/03/03 03:08:33;;;;;;;19.65;6.00;;;2.60;99.90;;;;;;5017884;28;20503;-47
2023/03/03 03:10:59;;;;;;;28.33;7.20;;;2.60;99.90;;;;;;5005377;28;20481;-42
2023/03/03 03:13:25;;;;;;;15.25;5.47;;;2.70;99.90;;;;;;5004773;28;20050;-43
2023/03/03 03:15:51;;;;;;;22.60;6.75;;;2.70;99.90;;;;;;5002904;28;20049;-41
2023/03/03 03:18:17;;;;;;;26.98;6.63;;;2.70;99.90;;;;;;5003642;28;20054;-42
2023/03/03 03:20:43;;;;;;;21.48;6.97;;;2.70;99.90;;;;;;4995394;28;20125;-45
2023/03/03 03:23:10;;;;;;;25.70;7.53;;;2.70;99.90;;;;;;5006320;28;20050;-42
2023/03/03 03:25:44;;;;;;;18.77;6.55;;;2.70;99.90;;;;;;5003529;28;20140;-44
2023/03/03 03:28:11;;;;;;;25.38;6.70;;;2.70;99.90;;;;;;4984913;28;20050;-42
2023/03/03 03:30:38;;;;;;;15.13;5.80;;;2.70;99.90;;;;;;5000792;28;20455;-43
2023/03/03 03:33:04;;;;;;;16.42;5.45;;;2.70;99.90;;;;;;5002682;28;20050;-42
2023/03/03 03:35:31;;;;;;;19.05;5.55;;;2.70;99.90;;;;;;5003280;28;20096;-41
2023/03/03 03:37:56;;;;;;;25.15;6.10;;;2.70;99.90;;;;;;5000089;28;20104;-43
2023/03/03 03:40:24;;;;;;;21.52;4.88;;;2.70;99.90;;;;;;5004206;28;20058;-41
2023/03/03 03:42:50;;;;;;;18.10;5.70;;;2.70;99.90;;;;;;5004302;28;20050;-43
2023/03/03 03:45:15;;;;;;;24.95;5.47;;;2.70;99.90;;;;;;5004481;28;20053;-42
2023/03/03 03:47:41;;;;;;;27.05;5.90;;;2.70;99.90;;;;;;5005183;28;20046;-43
2023/03/03 03:50:08;;;;;;;18.95;5.35;;;2.70;99.90;;;;;;5004017;28;20211;-42
2023/03/03 03:52:34;;;;;;;17.83;5.90;;;2.70;99.90;;;;;;5003276;28;20107;-43
2023/03/03 03:55:00;;;;;;;27.23;5.88;;;2.70;99.90;;;;;;4994536;28;20380;-44
2023/03/03 03:57:26;;;;;;;29.23;6.10;;;2.70;99.90;;;;;;5006084;28;20046;-42
2023/03/03 03:59:52;;;;;;;27.50;5.93;;;2.70;99.90;;;;;;4996544;28;20050;-42
2023/03/03 04:02:18;;;;;;;19.50;5.45;;;2.70;99.90;;;;;;5002635;28;20622;-42
2023/03/03 04:04:44;;;;;;;12.70;5.28;;;2.70;99.90;;;;;;5006254;28;20380;-43
2023/03/03 04:07:10;;;;;;;15.35;5.63;;;2.80;99.90;;;;;;4998817;28;20119;-41
2023/03/03 04:09:35;;;;;;;21.92;5.15;;;2.80;99.90;;;;;;5006962;28;20040;-42
2023/03/03 04:12:01;;;;;;;25.30;5.35;;;2.80;99.90;;;;;;5002026;28;20068;-45
2023/03/03 04:14:27;;;;;;;19.50;4.30;;;2.80;99.90;;;;;;5000687;28;20539;-44
2023/03/03 04:16:52;;;;;;;14.57;4.40;;;2.70;99.90;;;;;;5003254;28;20450;-45
2023/03/03 04:19:18;;;;;;;19.95;5.82;;;2.70;99.90;;;;;;5003172;28;20045;-45
2023/03/03 04:21:44;;;;;;;20.92;5.38;;;2.80;99.90;;;;;;5006428;28;20045;-43
2023/03/03 04:24:10;;;;;;;21.70;5.28;;;2.80;99.90;;;;;;4997413;28;20046;-49
2023/03/03 04:26:35;;;;;;;16.60;5.15;;;2.80;99.90;;;;;;5000078;28;20058;-43
2023/03/03 04:29:01;;;;;;;26.50;5.95;;;2.80;99.90;;;;;;5002831;28;20050;-50
2023/03/03 04:31:27;;;;;;;25.40;5.10;;;2.80;99.90;;;;;;5002520;28;20507;-43
2023/03/03 04:33:53;;;;;;;15.18;4.35;;;2.80;99.90;;;;;;5000094;28;20559;-43
2023/03/03 04:36:19;;;;;;;17.58;5.35;;;2.80;99.90;;;;;;5000833;28;20112;-43
2023/03/03 04:38:45;;;;;;;12.23;4.68;;;2.80;99.90;;;;;;5004485;28;20057;-41
2023/03/03 04:41:11;;;;;;;17.30;5.18;;;2.80;99.90;;;;;;5000633;28;20050;-41
2023/03/03 04:43:37;;;;;;;14.77;3.97;;;2.80;99.90;;;;;;5002339;28;20110;-48
2023/03/03 04:46:03;;;;;;;18.10;5.20;;;2.80;99.90;;;;;;4998855;28;20053;-43
2023/03/03 04:48:28;;;;;;;24.38;5.28;;;2.80;99.90;;;;;;5003163;28;20072;-44
2023/03/03 04:50:54;;;;;;;12.20;4.28;;;2.90;99.90;;;;;;5003794;28;20488;-42
2023/03/03 04:53:20;;;;;;;14.93;4.93;;;2.90;99.90;;;;;;5000797;28;20053;-41
2023/03/03 04:55:46;;;;;;;17.48;5.22;;;2.90;99.90;;;;;;5003486;28;20418;-41
2023/03/03 04:58:11;;;;;;;17.13;5.28;;;2.90;99.90;;;;;;5007757;28;20480;-42
2023/03/03 05:00:38;;;;;;;12.50;4.50;;;2.90;99.90;;;;;;5003803;28;20056;-43
2023/03/03 05:03:04;;;;;;;22.58;5.25;;;2.90;99.90;;;;;;4999976;28;20054;-43
2023/03/03 05:05:30;;;;;;;16.60;4.82;;;2.90;99.90;;;;;;5002718;28;20758;-42
2023/03/03 05:07:55;;;;;;;26.60;5.30;;;2.90;99.90;;;;;;5015447;28;20608;-41
2023/03/03 05:10:21;;;;;;;20.05;4.45;;;2.90;99.90;;;;;;5000489;28;20464;-43
2023/03/03 05:12:47;;;;;;;16.92;4.57;;;2.90;99.90;;;;;;5003770;28;20046;-42
2023/03/03 05:15:12;;;;;;;27.67;4.72;;;3.00;99.90;;;;;;5001837;28;20141;-42
2023/03/03 05:17:38;;;;;;;13.48;4.20;;;2.90;99.90;;;;;;5003566;28;20400;-41
2023/03/03 05:20:07;;;;;;;21.95;4.75;;;3.00;99.90;;;;;;5001982;28;20180;-43
2023/03/03 05:22:33;;;;;;;26.55;5.75;;;2.90;99.90;;;;;;5007288;28;20042;-42
2023/03/03 05:24:58;;;;;;;20.25;5.65;;;2.90;99.90;;;;;;5002262;28;20392;-42
2023/03/03 05:27:24;;;;;;;14.65;5.20;;;3.00;99.90;;;;;;5002545;28;20057;-44
2023/03/03 05:29:50;;;;;;;20.88;5.38;;;3.00;99.90;;;;;;5001873;28;20507;-45
2023/03/03 05:32:16;;;;;;;17.73;4.38;;;3.00;99.90;;;;;;5002450;28;20045;-44
2023/03/03 05:34:42;;;;;;;13.40;4.00;;;3.00;99.90;;;;;;5003260;28;20046;-43
2023/03/03 05:37:08;;;;;;;12.05;4.07;;;3.00;99.90;;;;;;5003969;28;20454;-49
2023/03/03 05:39:34;;;;;;;28.38;4.97;;;3.00;99.90;;;;;;5002005;28;20388;-43
2023/03/03 05:41:59;;;;;;;21.95;5.22;;;3.00;99.90;;;;;;4998631;28;20105;-42
2023/03/03 05:44:26;;;;;;;19.25;4.10;;;3.00;99.90;;;;;;4998898;28;20057;-46
2023/03/03 05:46:52;;;;;;;22.30;4.97;;;2.90;99.90;;;;;;5002373;28;20176;-44
2023/03/03 05:49:18;;;;;;;26.17;6.32;;;2.90;99.90;;;;;;5000741;28;20058;-46
2023/03/03 05:51:44;;;;;;;10.60;3.72;;;2.90;99.90;;;;;;5004907;28;20062;-41
2023/03/03 05:54:09;;;;;;;8.82;3.90;;;3.00;99.90;;;;;;5000517;28;20595;-43
2023/03/03 05:56:35;;;;;;;15.38;4.55;;;3.00;99.90;;;;;;5006982;28;20775;-43
2023/03/03 05:59:01;;;;;;;20.35;5.20;;;3.00;99.90;;;;;;4999601;28;20050;-41
2023/03/03 06:01:28;;;;;;;22.23;4.50;;;3.00;99.90;;;;;;5004358;28;20159;-43
2023/03/03 06:03:53;;;;;;;21.90;4.60;;;3.00;99.90;;;;;;5006912;28;20510;-43
2023/03/03 06:06:19;;;;;;;22.42;4.63;;;3.00;99.90;;;;;;5006078;28;20050;-45
2023/03/03 06:08:45;;;;;;;19.17;3.90;;;3.00;99.90;;;;;;4996469;28;21201;-45
2023/03/03 06:11:11;;;;;;;16.65;4.55;;;3.00;99.90;;;;;;5005442;28;20411;-42
2023/03/03 06:13:37;;;;;;;42.33;7.13;;;3.00;99.90;;;;;;4999746;28;20402;-44
2023/03/03 06:16:03;;;;;;;21.10;4.25;;;3.00;99.90;;;;;;5003527;28;20057;-44
2023/03/03 06:18:29;;;;;;;23.27;6.15;;;3.10;99.90;;;;;;5005349;28;20053;-43
2023/03/03 06:20:54;;;;;;;27.85;5.38;;;3.00;99.90;;;;;;5003194;28;20064;-42
2023/03/03 06:23:21;;;;;;;50.30;8.57;;;3.00;99.90;;;;;;5007655;28;20076;-43
2023/03/03 06:25:47;;;;;;;17.27;3.95;;;3.00;99.90;;;;;;5002565;28;20048;-41
2023/03/03 06:28:13;;;;;;;18.58;4.78;;;3.10;99.90;;;;;;5004432;28;20050;-42
2023/03/03 06:30:40;;;;;;;38.90;7.43;;;3.10;99.90;;;;;;5004855;28;20053;-43
2023/03/03 06:33:05;;;;;;;31.10;4.80;;;3.10;99.90;;;;;;5006440;28;20065;-44
2023/03/03 06:35:31;;;;;;;13.98;3.30;;;3.10;99.90;;;;;;5007531;28;20057;-43
2023/03/03 06:37:56;;;;;;;34.65;5.30;;;3.10;99.90;;;;;;5005286;28;20046;-43
2023/03/03 06:40:22;;;;;;;31.33;4.97;;;3.10;99.90;;;;;;5003230;28;20468;-43
2023/03/03 06:42:48;;;;;;;13.82;3.80;;;3.10;99.90;;;;;;5005484;28;20050;-42
2023/03/03 06:45:14;;;;;;;32.63;4.82;;;3.10;99.90;;;;;;5000252;28;20503;-44
2023/03/03 06:47:40;;;;;;;25.42;4.90;;;3.10;99.90;;;;;;4998981;28;20054;-47
2023/03/03 06:50:06;;;;;;;42.92;5.47;;;3.20;99.90;;;;;;4996112;28;20049;-38
2023/03/03 06:52:32;;;;;;;20.33;4.32;;;3.20;99.90;;;;;;5000685;28;20046;-44
2023/03/03 06:55:01;;;;;;;29.90;5.85;;;3.20;99.90;;;;;;5003876;28;20115;-43
2023/03/03 06:57:29;;;;;;;33.25;5.68;;;3.20;99.90;;;;;;5003466;28;20181;-43
2023/03/03 06:59:59;;;;;;;44.53;6.75;;;3.20;99.90;;;;;;5004703;28;21462;-44
2023/03/03 07:02:24;;;;;;;31.90;4.05;;;3.10;99.90;;;;;;5002310;28;20057;-45
2023/03/03 07:04:53;;;;;;;55.10;7.78;;;3.20;99.90;;;;;;5005208;28;20068;-44
2023/03/03 07:07:21;;;;;;;34.92;5.03;;;3.10;99.90;;;;;;5000183;28;20086;-42
2023/03/03 07:09:52;;;;;;;48.25;6.78;;;3.10;99.90;;;;;;5005091;28;20127;-43
2023/03/03 07:12:22;;;;;;;36.08;5.22;;;3.10;99.90;;;;;;4993347;28;20581;-53
2023/03/03 07:15:09;;;;;;;64.22;7.75;;;3.10;99.90;;;;;;4994233;28;20388;-43
2023/03/03 07:17:36;;;;;;;30.10;4.20;;;3.10;99.90;;;;;;4997721;28;20057;-54
2023/03/03 07:20:21;;;;;;;56.20;6.03;;;3.10;99.90;;;;;;5012865;28;20063;-43
2023/03/03 07:22:47;;;;;;;39.38;5.28;;;3.10;99.90;;;;;;5001248;28;20507;-44
2023/03/03 07:25:36;;;;;;;47.30;5.18;;;3.10;99.90;;;;;;4999826;28;20057;-43
2023/03/03 07:28:21;;;;;;;62.75;7.78;;;3.10;99.90;;;;;;4995826;28;20582;-44
2023/03/03 07:30:46;;;;;;;57.05;6.05;;;3.10;99.90;;;;;;4996657;28;20050;-43
2023/03/03 07:33:24;;;;;;;57.17;5.32;;;3.10;99.90;;;;;;4998205;28;20705;-41
2023/03/03 07:35:50;;;;;;;65.38;6.30;;;3.10;99.90;;;;;;4996974;28;20058;-57
2023/03/03 07:38:29;;;;;;;31.52;4.72;;;3.10;99.90;;;;;;4994588;28;20050;-42
2023/03/03 07:40:58;;;;;;;55.95;5.25;;;3.20;99.90;;;;;;4995950;28;20049;-47
2023/03/03 07:43:37;;;;;;;27.63;5.13;;;3.20;99.90;;;;;;4996630;28;20499;-44
2023/03/03 07:46:21;;;;;;;37.95;5.35;;;3.20;99.90;;;;;;4992325;28;20065;-45
2023/03/03 07:48:48;;;;;;;25.08;3.60;;;3.10;99.90;;;;;;5007752;28;20500;-45
2023/03/03 07:51:24;;;;;;;32.40;4.88;;;3.20;99.90;;;;;;4994245;28;20094;-41
2023/03/03 07:53:51;;;;;;;36.00;4.43;;;3.20;99.90;;;;;;5000464;28;20061;-42
2023/03/03 07:56:32;;;;;;;62.88;5.43;;;3.20;99.90;;;;;;4998690;28;20054;-41
2023/03/03 07:58:59;;;;;;;39.13;4.28;;;3.20;99.90;;;;;;5000578;28;20436;-44
2023/03/03 08:01:31;;;;;;;27.38;5.30;;;3.20;99.90;;;;;;5001695;28;20054;-45
2023/03/03 08:03:57;;;;;;;39.08;4.75;;;3.20;99.90;;;;;;5002064;28;20120;-42
2023/03/03 08:06:34;;;;;;;51.30;4.95;;;3.20;99.90;;;;;;5000716;28;20054;-44
2023/03/03 08:09:09;;;;;;;45.38;5.55;;;3.30;99.90;;;;;;4992992;28;20057;-43
2023/03/03 08:11:53;;;;;;;20.88;4.00;;;3.30;99.90;;;;;;4997795;28;20050;-43
2023/03/03 08:14:29;;;;;;;51.53;4.50;;;3.40;99.90;;;;;;5001712;28;20058;-42
2023/03/03 08:16:56;;;;;;;36.63;5.65;;;3.50;99.90;;;;;;4992864;28;20141;-39
2023/03/03 08:19:23;;;;;;;29.30;3.88;;;3.50;99.90;;;;;;4996984;28;20050;-43
2023/03/03 08:21:49;;;;;;;29.27;3.85;;;3.50;99.90;;;;;;4996165;28;21550;-42
2023/03/03 08:24:14;;;;;;;44.75;6.10;;;3.50;99.90;;;;;;4997064;28;20061;-42
2023/03/03 08:26:40;;;;;;;26.90;4.25;;;3.50;99.90;;;;;;4998270;28;20046;-46
2023/03/03 08:29:06;;;;;;;27.67;4.82;;;3.50;99.90;;;;;;4995724;28;20150;-44
2023/03/03 08:31:31;;;;;;;32.03;5.07;;;3.60;99.90;;;;;;4996923;28;20053;-42
2023/03/03 08:33:57;;;;;;;27.63;3.85;;;3.60;99.90;;;;;;4999862;28;20071;-43
2023/03/03 08:36:23;;;;;;;12.18;2.72;;;3.70;99.90;;;;;;4993257;28;20069;-43
2023/03/03 08:38:49;;;;;;;20.02;3.90;;;3.70;99.90;;;;;;5015556;28;20054;-44
2023/03/03 08:41:15;;;;;;;21.17;3.95;;;3.70;99.90;;;;;;4990693;28;20058;-45
2023/03/03 08:43:42;;;;;;;13.38;4.28;;;3.70;99.90;;;;;;4998997;28;20061;-42
2023/03/03 08:46:09;;;;;;;39.63;5.38;;;3.80;99.90;;;;;;4999101;28;20123;-45
2023/03/03 08:48:34;;;;;;;11.73;3.05;;;3.90;99.90;;;;;;4999150;28;20132;-46
2023/03/03 08:51:02;;;;;;;12.70;3.10;;;4.00;99.90;;;;;;5000485;28;20129;-46
2023/03/03 08:53:28;;;;;;;18.75;3.58;;;4.00;99.90;;;;;;4999140;28;20057;-45
2023/03/03 08:55:54;;;;;;;20.08;4.43;;;4.00;99.90;;;;;;4997925;28;20062;-49
2023/03/03 08:58:20;;;;;;;24.52;4.15;;;4.10;99.90;;;;;;4994819;28;20791;-47
2023/03/03 09:00:46;;;;;;;18.75;4.10;;;4.20;99.90;;;;;;4996463;28;20053;-44
2023/03/03 09:03:12;;;;;;;23.17;4.93;;;4.30;99.90;;;;;;5001527;28;20060;-48
2023/03/03 09:05:39;;;;;;;17.75;3.80;;;4.30;99.90;;;;;;4995874;28;20476;-48
2023/03/03 09:08:07;;;;;;;20.83;6.15;;;4.40;99.90;;;;;;5000045;28;20802;-48
2023/03/03 09:10:34;;;;;;;19.00;3.05;;;4.40;99.90;;;;;;4999049;28;20100;-36
2023/03/03 09:13:20;;;;;;;17.17;3.60;;;4.40;99.90;;;;;;4995561;28;20577;-37
2023/03/03 09:15:47;;;;;;;13.73;2.78;;;4.50;99.90;;;;;;4996013;28;20345;-37
2023/03/03 09:18:40;;;;;;;21.30;3.90;;;4.50;99.90;;;;;;4999010;28;20428;-36
2023/03/03 09:21:22;;;;;;;10.80;3.30;;;4.50;99.90;;;;;;4997557;28;20057;-36
2023/03/03 09:23:56;;;;;;;7.82;2.72;;;4.60;99.90;;;;;;4993496;28;20617;-35
2023/03/03 09:26:30;;;;;;;7.68;2.88;;;4.80;99.90;;;;;;4999945;28;20128;-36
2023/03/03 09:29:13;;;;;;;8.93;2.47;;;4.90;99.90;;;;;;4992645;28;20056;-36
2023/03/03 09:31:47;;;;;;;6.35;2.58;;;5.00;99.90;;;;;;4998790;28;20049;-36
2023/03/03 09:34:39;;;;;;;5.72;2.70;;;5.10;99.90;;;;;;5004134;28;20412;-36
2023/03/03 09:37:25;;;;;;;6.03;2.75;;;5.30;99.90;;;;;;5007461;28;20144;-37
2023/03/03 09:39:56;;;;;;;7.65;2.22;;;5.30;99.90;;;;;;4997408;28;20054;-36
2023/03/03 09:42:57;;;;;;;5.03;1.92;;;5.40;99.90;;;;;;4997081;28;20056;-38
2023/03/03 09:45:47;;;;;;;5.22;2.17;;;5.40;99.90;;;;;;4943149;28;20272;-47
2023/03/03 09:48:49;;;;;;;6.65;2.30;;;5.50;99.90;;;;;;4993280;28;20050;-45
2023/03/03 09:51:34;;;;;;;8.65;2.65;;;5.60;99.90;;;;;;4999609;28;20050;-48
2023/03/03 09:54:02;;;;;;;5.97;2.03;;;5.70;99.90;;;;;;4993470;28;20077;-45
2023/03/03 09:56:38;;;;;;;7.55;2.15;;;5.70;99.90;;;;;;5008760;28;20057;-45
2023/03/03 09:59:39;;;;;;;6.15;2.03;;;5.80;99.90;;;;;;4996807;28;20046;-49
2023/03/03 10:02:23;;;;;;;3.88;1.52;;;6.00;99.90;;;;;;4974089;28;20107;-48
2023/03/03 10:04:57;;;;;;;5.60;1.50;;;6.00;99.90;;;;;;5002896;28;20042;-49
2023/03/03 10:07:32;;;;;;;3.65;1.58;;;5.90;99.90;;;;;;5003584;28;20143;-52
2023/03/03 10:10:04;;;;;;;3.42;1.30;;;6.00;99.90;;;;;;5005425;28;20587;-60
2023/03/03 10:12:34;;;;;;;11.80;1.20;;;6.00;99.90;;;;;;5002822;28;20056;-47
2023/03/03 10:15:39;;;;;;;5.05;1.20;;;6.00;99.90;;;;;;5005920;28;20058;-47
2023/03/03 10:18:27;;;;;;;6.32;1.27;;;6.20;99.90;;;;;;5003788;28;20053;-44
2023/03/03 10:21:24;;;;;;;7.38;2.35;;;6.40;99.90;;;;;;5003845;28;20164;-45
2023/03/03 10:24:04;;;;;;;3.05;1.30;;;6.60;99.90;;;;;;4998934;28;20077;-49
2023/03/03 10:26:41;;;;;;;4.88;1.40;;;6.40;99.90;;;;;;4998393;28;20049;-48
2023/03/03 10:29:26;;;;;;;4.55;1.50;;;6.30;99.90;;;;;;5000338;28;20125;-47
2023/03/03 10:32:00;;;;;;;2.33;1.10;;;6.30;99.90;;;;;;5000919;28;20045;-48
2023/03/03 10:34:32;;;;;;;3.42;1.40;;;6.40;99.90;;;;;;5000649;28;20053;-46
2023/03/03 10:37:35;;;;;;;3.75;1.10;;;6.50;99.90;;;;;;4997057;28;20505;-48
2023/03/03 10:40:13;;;;;;;3.45;1.17;;;6.50;99.90;;;;;;4996760;28;20137;-44
2023/03/03 10:42:43;;;;;;;5.78;1.40;;;6.60;99.90;;;;;;4999588;28;20050;-46
2023/03/03 10:45:30;;;;;;;3.40;1.08;;;6.70;99.90;;;;;;5002225;28;20085;-45
2023/03/03 10:48:22;;;;;;;5.90;1.40;;;6.80;99.90;;;;;;5001351;28;20074;-43
2023/03/03 10:51:00;;;;;;;4.32;1.75;;;6.90;99.90;;;;;;4996924;28;20579;-47
2023/03/03 10:53:53;;;;;;;3.72;1.20;;;7.00;99.90;;;;;;4997511;28;20060;-49
2023/03/03 10:56:39;;;;;;;3.17;1.10;;;7.20;99.90;;;;;;4990959;28;20372;-45
2023/03/03 10:59:33;;;;;;;4.15;1.33;;;7.40;99.90;;;;;;4994529;28;20323;-49
2023/03/03 11:02:01;;;;;;;;;;;7.50;99.90;;;;;;4996968;28;20053;-47
2023/03/03 11:04:48;;;;;;;7.10;1.70;;;7.50;99.90;;;;;;5000816;28;20295;-47
2023/03/03 11:07:25;;;;;;;5.28;2.10;;;7.60;99.90;;;;;;5000344;28;20192;-48
2023/03/03 11:10:24;;;;;;;9.50;3.60;;;7.50;99.90;;;;;;5000866;28;20184;-43
2023/03/03 11:13:12;;;;;;;8.63;3.25;;;7.50;99.90;;;;;;4997642;28;20089;-36
2023/03/03 11:15:55;;;;;;;6.22;2.50;;;7.40;99.90;;;;;;5003132;28;20500;-36
2023/03/03 11:18:38;;;;;;;6.47;2.78;;;7.50;99.90;;;;;;5000501;28;20069;-36
2023/03/03 11:21:33;;;;;;;7.40;2.63;;;7.50;99.90;;;;;;4999670;28;20062;-36
2023/03/03 11:24:20;;;;;;;8.23;2.78;;;7.40;99.90;;;;;;4989941;28;20495;-36
2023/03/03 11:27:01;;;;;;;10.15;4.28;;;7.40;99.90;;;;;;5001333;28;20165;-37
2023/03/03 11:29:40;;;;;;;12.65;4.97;;;7.50;99.90;;;;;;5001555;28;20054;-37
2023/03/03 11:32:11;;;;;;;11.77;4.72;;;7.70;99.90;;;;;;5002669;28;20053;-42
2023/03/03 11:34:59;;;;;;;14.13;5.43;;;7.80;99.90;;;;;;4996067;28;20049;-42
2023/03/03 11:37:53;;;;;;;9.90;3.90;;;7.80;99.90;;;;;;4989483;28;20313;-46
2023/03/03 11:40:48;;;;;;;13.07;5.80;;;7.80;99.90;;;;;;5009692;28;20069;-42
2023/03/03 11:43:17;;;;;;;10.23;4.55;;;7.80;99.90;;;;;;4991756;28;20495;-43
2023/03/03 11:45:49;;;;;;;13.52;5.00;;;8.10;99.90;;;;;;4997679;28;20057;-46
2023/03/03 11:48:18;;;;;;;;;;;8.30;99.90;;;;;;4995553;28;20125;-45
2023/03/03 11:51:06;;;;;;;14.18;6.00;;;8.40;99.90;;;;;;4995766;28;19921;-44
2023/03/03 11:54:07;;;;;;;14.85;5.57;;;8.40;99.90;;;;;;4998313;28;20050;-42
2023/03/03 11:56:41;;;;;;;11.02;4.30;;;8.40;99.90;;;;;;4940840;28;20063;-50
2023/03/03 11:59:44;;;;;;;5.60;2.40;;;8.40;99.90;;;;;;5001133;28;20563;-42
2023/03/03 12:02:20;;;;;;;6.93;2.53;;;8.40;99.60;;;;;;4994607;28;20058;-44
2023/03/03 12:04:52;;;;;;;6.70;2.38;;;8.40;99.90;;;;;;4999661;28;20136;-44
2023/03/03 12:07:31;;;;;;;5.20;1.05;;;8.50;99.90;;;;;;4999219;28;20050;-43
2023/03/03 12:10:37;;;;;;;3.72;1.30;;;8.40;99.80;;;;;;4999151;28;20408;-43
2023/03/03 12:13:23;;;;;;;3.80;1.30;;;8.40;99.20;;;;;;4993542;28;20049;-59
2023/03/03 12:15:52;;;;;;;6.95;2.08;;;8.40;99.50;;;;;;4993670;28;20062;-45
2023/03/03 12:18:30;;;;;;;9.90;4.07;;;8.30;99.30;;;;;;4998927;28;20137;-45
2023/03/03 12:21:45;;;;;;;15.07;5.20;;;8.20;99.30;;;;;;4995545;28;20127;-44
2023/03/03 12:24:17;;;;;;;7.47;3.53;;;8.10;99.00;;;;;;4944587;28;20093;-46
2023/03/03 12:27:09;;;;;;;8.07;3.80;;;8.10;99.60;;;;;;4956106;28;20508;-44
2023/03/03 12:29:58;;;;;;;8.57;3.67;;;7.90;99.60;;;;;;4994417;28;20065;-49
2023/03/03 12:32:27;;;;;;;10.18;3.63;;;7.80;99.30;;;;;;5001286;28;20053;-48
2023/03/03 12:35:11;;;;;;;8.43;3.97;;;7.60;99.70;;;;;;5006712;28;20072;-47
2023/03/03 12:37:51;;;;;;;10.07;4.47;;;7.60;99.90;;;;;;5004339;28;20053;-47
2023/03/03 12:40:25;;;;;;;10.60;3.95;;;7.60;99.90;;;;;;4996593;28;20102;-50
2023/03/03 12:43:04;;;;;;;9.02;3.92;;;7.50;99.90;;;;;;5000643;28;20080;-47
2023/03/03 12:46:04;;;;;;;10.60;3.90;;;7.60;99.90;;;;;;5000943;28;20071;-46
2023/03/03 12:48:29;;;;;;;9.20;4.13;;;7.60;99.90;;;;;;5002726;28;20785;-46
2023/03/03 12:51:19;;;;;;;11.23;3.80;;;7.60;99.90;;;;;;4998310;28;20956;-48
2023/03/03 12:54:13;;;;;;;8.25;3.40;;;7.60;99.90;;;;;;4995798;28;20136;-44
2023/03/03 12:56:51;;;;;;;;;;;7.60;99.90;;;;;;4995096;28;20053;-45
2023/03/03 12:59:24;;;;;;;7.93;2.72;;;7.70;99.90;;;;;;5003552;28;19968;-47
2023/03/03 13:02:07;;;;;;;4.53;1.50;;;7.70;99.90;;;;;;5002890;28;20050;-48
2023/03/03 13:04:43;;;;;;;4.75;1.58;;;7.80;99.60;;;;;;5003873;28;20165;-48
2023/03/03 13:07:24;;;;;;;4.57;1.05;;;7.80;98.60;;;;;;4996046;28;20058;-47
2023/03/03 13:10:27;;;;;;;2.90;0.63;;;7.90;97.80;;;;;;5005756;28;20414;-51
2023/03/03 13:13:23;;;;;;;4.82;0.70;;;7.90;97.20;;;;;;4998169;28;20144;-47
2023/03/03 13:16:03;;;;;;;2.38;0.70;;;8.00;97.20;;;;;;4995081;28;20053;-45
2023/03/03 13:18:54;;;;;;;3.15;0.65;;;8.20;96.90;;;;;;5005056;28;20057;-45